sensor_id;sensor_type;location;lat;lon;timestamp;pressure;altitude;pressure_sealevel;temperature;humidity
74079;BME280;62437;51.544;-3.276;2022-08-25T00:02:19;101213.49;;;20.19;47.52
74079;BME280;62437;51.544;-3.276;2022-08-25T00:04:45;101213.76;;;20.39;47.63
74079;BME280;62437;51.544;-3.276;2022-08-25T00:07:10;101209.82;;;20.33;48.42
74079;BME280;62437;51.544;-3.276;2022-08-25T00:09:36;101212.20;;;20.51;48.05
74079;BME280;62437;51.544;-3.276;2022-08-25T00:12:03;101216.90;;;20.31;47.79
74079;BME280;62437;51.544;-3.276;2022-08-25T00:14:31;101222.70;;;20.58;47.32
74079;BME280;62437;51.544;-3.276;2022-08-25T00:16:53;101219.27;;;20.33;47.60
74079;BME280;62437;51.544;-3.276;2022-08-25T00:19:22;101213.69;;;20.23;48.18
74079;BME280;62437;51.544;-3.276;2022-08-25T00:21:45;101207.34;;;20.08;48.91
74079;BME280;62437;51.544;-3.276;2022-08-25T00:24:11;101204.92;;;20.26;48.00
74079;BME280;62437;51.544;-3.276;2022-08-25T00:26:38;101203.46;;;20.29;48.14
74079;BME280;62437;51.544;-3.276;2022-08-25T00:29:01;101204.16;;;20.30;48.83
74079;BME280;62437;51.544;-3.276;2022-08-25T00:31:26;101207.78;;;20.22;47.60
74079;BME280;62437;51.544;-3.276;2022-08-25T00:33:52;101206.28;;;20.38;47.55
74079;BME280;62437;51.544;-3.276;2022-08-25T00:36:18;101201.74;;;20.03;47.68
74079;BME280;62437;51.544;-3.276;2022-08-25T00:38:45;101193.63;;;19.76;48.29
74079;BME280;62437;51.544;-3.276;2022-08-25T00:41:10;101190.13;;;19.84;48.41
74079;BME280;62437;51.544;-3.276;2022-08-25T00:43:43;101192.01;;;19.87;48.30
74079;BME280;62437;51.544;-3.276;2022-08-25T00:46:00;101193.07;;;19.88;48.45
74079;BME280;62437;51.544;-3.276;2022-08-25T00:48:26;101192.92;;;19.89;48.68
74079;BME280;62437;51.544;-3.276;2022-08-25T00:50:51;101193.52;;;19.67;48.42
74079;BME280;62437;51.544;-3.276;2022-08-25T00:53:17;101187.49;;;19.72;48.34
74079;BME280;62437;51.544;-3.276;2022-08-25T00:55:43;101193.09;;;19.60;48.59
74079;BME280;62437;51.544;-3.276;2022-08-25T00:58:12;101197.30;;;19.60;48.60
74079;BME280;62437;51.544;-3.276;2022-08-25T01:00:37;101200.60;;;19.55;48.76
74079;BME280;62437;51.544;-3.276;2022-08-25T01:03:00;101207.13;;;19.48;49.35
74079;BME280;62437;51.544;-3.276;2022-08-25T01:05:26;101211.98;;;20.02;48.82
74079;BME280;62437;51.544;-3.276;2022-08-25T01:07:53;101223.63;;;19.67;48.66
74079;BME280;62437;51.544;-3.276;2022-08-25T01:10:18;101228.03;;;19.43;48.83
74079;BME280;62437;51.544;-3.276;2022-08-25T01:12:42;101233.51;;;19.31;49.20
74079;BME280;62437;51.544;-3.276;2022-08-25T01:15:12;101234.55;;;19.58;49.22
74079;BME280;62437;51.544;-3.276;2022-08-25T01:17:38;101232.91;;;19.50;48.74
74079;BME280;62437;51.544;-3.276;2022-08-25T01:19:59;101225.22;;;19.66;48.86
74079;BME280;62437;51.544;-3.276;2022-08-25T01:22:24;101224.82;;;19.54;48.95
74079;BME280;62437;51.544;-3.276;2022-08-25T01:24:56;101229.42;;;19.67;48.15
74079;BME280;62437;51.544;-3.276;2022-08-25T01:27:16;101227.53;;;19.55;48.78
74079;BME280;62437;51.544;-3.276;2022-08-25T01:29:42;101223.40;;;19.90;48.60
74079;BME280;62437;51.544;-3.276;2022-08-25T01:32:10;101226.54;;;19.54;48.52
74079;BME280;62437;51.544;-3.276;2022-08-25T01:34:35;101224.33;;;19.50;48.42
74079;BME280;62437;51.544;-3.276;2022-08-25T01:36:59;101220.13;;;19.28;48.80
74079;BME280;62437;51.544;-3.276;2022-08-25T01:39:25;101212.56;;;19.35;48.94
74079;BME280;62437;51.544;-3.276;2022-08-25T01:42:07;101205.88;;;19.35;48.76
74079;BME280;62437;51.544;-3.276;2022-08-25T01:44:16;101198.90;;;19.21;48.70
74079;BME280;62437;51.544;-3.276;2022-08-25T01:46:41;101200.22;;;19.06;49.99
74079;BME280;62437;51.544;-3.276;2022-08-25T01:49:06;101195.36;;;19.30;49.33
74079;BME280;62437;51.544;-3.276;2022-08-25T01:51:37;101188.91;;;19.47;48.80
74079;BME280;62437;51.544;-3.276;2022-08-25T01:53:58;101182.78;;;19.12;48.63
74079;BME280;62437;51.544;-3.276;2022-08-25T01:56:23;101189.08;;;18.83;49.68
74079;BME280;62437;51.544;-3.276;2022-08-25T01:58:49;101191.31;;;19.22;49.66
74079;BME280;62437;51.544;-3.276;2022-08-25T02:01:17;101190.50;;;19.00;48.94
74079;BME280;62437;51.544;-3.276;2022-08-25T02:03:42;101194.77;;;19.31;49.06
74079;BME280;62437;51.544;-3.276;2022-08-25T02:06:06;101201.54;;;19.18;49.09
74079;BME280;62437;51.544;-3.276;2022-08-25T02:08:32;101206.97;;;19.02;49.31
74079;BME280;62437;51.544;-3.276;2022-08-25T02:10:57;101208.60;;;19.13;49.14
74079;BME280;62437;51.544;-3.276;2022-08-25T02:13:23;101209.65;;;19.03;48.69
74079;BME280;62437;51.544;-3.276;2022-08-25T02:15:52;101205.60;;;19.27;49.40
74079;BME280;62437;51.544;-3.276;2022-08-25T02:18:14;101198.44;;;18.92;49.73
74079;BME280;62437;51.544;-3.276;2022-08-25T02:20:40;101200.49;;;19.07;49.67
74079;BME280;62437;51.544;-3.276;2022-08-25T02:23:06;101207.62;;;19.11;49.55
74079;BME280;62437;51.544;-3.276;2022-08-25T02:25:32;101200.98;;;19.20;49.17
74079;BME280;62437;51.544;-3.276;2022-08-25T02:27:57;101201.31;;;18.94;49.24
74079;BME280;62437;51.544;-3.276;2022-08-25T02:30:22;101206.72;;;18.80;49.58
74079;BME280;62437;51.544;-3.276;2022-08-25T02:32:48;101210.38;;;18.66;49.11
74079;BME280;62437;51.544;-3.276;2022-08-25T02:35:14;101211.53;;;18.93;49.66
74079;BME280;62437;51.544;-3.276;2022-08-25T02:37:40;101215.96;;;18.58;50.45
74079;BME280;62437;51.544;-3.276;2022-08-25T02:40:06;101214.96;;;18.66;49.86
74079;BME280;62437;51.544;-3.276;2022-08-25T02:42:31;101220.37;;;19.02;49.78
74079;BME280;62437;51.544;-3.276;2022-08-25T02:44:56;101217.38;;;18.87;49.46
74079;BME280;62437;51.544;-3.276;2022-08-25T02:47:22;101213.46;;;18.59;49.89
74079;BME280;62437;51.544;-3.276;2022-08-25T02:49:47;101200.08;;;19.06;49.82
74079;BME280;62437;51.544;-3.276;2022-08-25T02:52:13;101197.25;;;19.07;49.29
74079;BME280;62437;51.544;-3.276;2022-08-25T02:54:39;101187.81;;;18.95;49.88
74079;BME280;62437;51.544;-3.276;2022-08-25T02:57:05;101179.26;;;18.71;49.86
74079;BME280;62437;51.544;-3.276;2022-08-25T02:59:30;101180.37;;;19.14;48.83
74079;BME280;62437;51.544;-3.276;2022-08-25T03:01:56;101175.03;;;18.74;49.72
74079;BME280;62437;51.544;-3.276;2022-08-25T03:04:21;101175.59;;;18.77;49.76
74079;BME280;62437;51.544;-3.276;2022-08-25T03:06:47;101184.91;;;18.48;49.87
74079;BME280;62437;51.544;-3.276;2022-08-25T03:09:13;101190.29;;;18.67;49.51
74079;BME280;62437;51.544;-3.276;2022-08-25T03:11:38;101191.85;;;18.28;50.25
74079;BME280;62437;51.544;-3.276;2022-08-25T03:14:04;101183.65;;;18.55;49.68
74079;BME280;62437;51.544;-3.276;2022-08-25T03:16:29;101175.68;;;18.36;51.82
74079;BME280;62437;51.544;-3.276;2022-08-25T03:18:55;101180.07;;;18.66;50.05
74079;BME280;62437;51.544;-3.276;2022-08-25T03:21:20;101186.42;;;18.42;49.43
74079;BME280;62437;51.544;-3.276;2022-08-25T03:23:46;101193.03;;;18.72;50.32
74079;BME280;62437;51.544;-3.276;2022-08-25T03:26:12;101195.67;;;18.78;49.20
74079;BME280;62437;51.544;-3.276;2022-08-25T03:28:37;101204.12;;;18.70;49.21
74079;BME280;62437;51.544;-3.276;2022-08-25T03:31:03;101200.49;;;18.46;49.29
74079;BME280;62437;51.544;-3.276;2022-08-25T03:33:29;101193.83;;;18.20;49.44
74079;BME280;62437;51.544;-3.276;2022-08-25T03:35:54;101186.77;;;18.50;50.31
74079;BME280;62437;51.544;-3.276;2022-08-25T03:38:20;101178.96;;;18.47;49.53
74079;BME280;62437;51.544;-3.276;2022-08-25T03:40:45;101175.83;;;18.33;49.62
74079;BME280;62437;51.544;-3.276;2022-08-25T03:43:11;101178.33;;;18.76;49.07
74079;BME280;62437;51.544;-3.276;2022-08-25T03:45:40;101186.32;;;18.50;49.33
74079;BME280;62437;51.544;-3.276;2022-08-25T03:48:02;101186.66;;;18.53;49.33
74079;BME280;62437;51.544;-3.276;2022-08-25T03:50:28;101190.44;;;18.61;49.64
74079;BME280;62437;51.544;-3.276;2022-08-25T03:52:55;101198.47;;;18.47;49.66
74079;BME280;62437;51.544;-3.276;2022-08-25T03:55:20;101200.16;;;18.57;49.95
74079;BME280;62437;51.544;-3.276;2022-08-25T03:57:45;101193.48;;;18.42;49.64
74079;BME280;62437;51.544;-3.276;2022-08-25T04:00:11;101185.23;;;18.44;49.34
74079;BME280;62437;51.544;-3.276;2022-08-25T04:02:36;101183.78;;;18.56;49.57
74079;BME280;62437;51.544;-3.276;2022-08-25T04:05:02;101184.00;;;18.31;50.07
74079;BME280;62437;51.544;-3.276;2022-08-25T04:07:27;101186.26;;;18.51;50.09
74079;BME280;62437;51.544;-3.276;2022-08-25T04:09:53;101191.26;;;18.57;49.22
74079;BME280;62437;51.544;-3.276;2022-08-25T04:12:18;101186.39;;;17.87;50.06
74079;BME280;62437;51.544;-3.276;2022-08-25T04:14:44;101178.13;;;18.43;49.55
74079;BME280;62437;51.544;-3.276;2022-08-25T04:17:09;101175.06;;;18.26;50.00
74079;BME280;62437;51.544;-3.276;2022-08-25T04:19:35;101175.13;;;18.47;49.45
74079;BME280;62437;51.544;-3.276;2022-08-25T04:22:01;101181.27;;;18.48;50.19
74079;BME280;62437;51.544;-3.276;2022-08-25T04:24:27;101182.00;;;18.51;49.86
74079;BME280;62437;51.544;-3.276;2022-08-25T04:26:52;101185.92;;;18.37;49.42
74079;BME280;62437;51.544;-3.276;2022-08-25T04:29:20;101184.53;;;18.36;49.64
74079;BME280;62437;51.544;-3.276;2022-08-25T04:31:45;101182.06;;;18.74;49.79
74079;BME280;62437;51.544;-3.276;2022-08-25T04:34:09;101173.28;;;18.43;50.40
74079;BME280;62437;51.544;-3.276;2022-08-25T04:36:36;101158.09;;;18.37;49.60
74079;BME280;62437;51.544;-3.276;2022-08-25T04:39:01;101147.73;;;18.25;49.63
74079;BME280;62437;51.544;-3.276;2022-08-25T04:41:26;101154.31;;;18.12;50.79
74079;BME280;62437;51.544;-3.276;2022-08-25T04:43:52;101159.85;;;18.36;49.56
74079;BME280;62437;51.544;-3.276;2022-08-25T04:46:20;101158.44;;;18.38;49.29
74079;BME280;62437;51.544;-3.276;2022-08-25T04:48:43;101159.40;;;18.28;49.80
74079;BME280;62437;51.544;-3.276;2022-08-25T04:51:09;101159.67;;;18.18;50.33
74079;BME280;62437;51.544;-3.276;2022-08-25T04:53:34;101160.15;;;17.95;49.99
74079;BME280;62437;51.544;-3.276;2022-08-25T04:55:59;101158.14;;;18.56;49.82
74079;BME280;62437;51.544;-3.276;2022-08-25T04:58:25;101155.14;;;18.30;50.24
74079;BME280;62437;51.544;-3.276;2022-08-25T05:00:50;101154.39;;;18.14;49.79
74079;BME280;62437;51.544;-3.276;2022-08-25T05:03:15;101157.87;;;18.24;49.89
74079;BME280;62437;51.544;-3.276;2022-08-25T05:05:41;101166.21;;;18.40;49.56
74079;BME280;62437;51.544;-3.276;2022-08-25T05:08:07;101170.20;;;17.99;49.63
74079;BME280;62437;51.544;-3.276;2022-08-25T05:10:33;101176.04;;;18.22;50.62
74079;BME280;62437;51.544;-3.276;2022-08-25T05:12:58;101178.33;;;18.36;49.42
74079;BME280;62437;51.544;-3.276;2022-08-25T05:15:25;101171.90;;;18.12;49.25
74079;BME280;62437;51.544;-3.276;2022-08-25T05:17:49;101163.66;;;17.79;50.09
74079;BME280;62437;51.544;-3.276;2022-08-25T05:20:15;101165.92;;;18.22;49.96
74079;BME280;62437;51.544;-3.276;2022-08-25T05:22:43;101164.77;;;18.19;50.55
74079;BME280;62437;51.544;-3.276;2022-08-25T05:25:07;101164.96;;;17.93;49.91
74079;BME280;62437;51.544;-3.276;2022-08-25T05:27:33;101164.33;;;18.02;50.01
74079;BME280;62437;51.544;-3.276;2022-08-25T05:29:57;101172.39;;;18.17;49.68
74079;BME280;62437;51.544;-3.276;2022-08-25T05:32:23;101183.92;;;17.97;49.70
74079;BME280;62437;51.544;-3.276;2022-08-25T05:34:48;101188.04;;;18.27;49.44
74079;BME280;62437;51.544;-3.276;2022-08-25T05:37:14;101184.58;;;17.87;50.93
74079;BME280;62437;51.544;-3.276;2022-08-25T05:39:39;101179.92;;;17.83;49.93
74079;BME280;62437;51.544;-3.276;2022-08-25T05:42:06;101177.28;;;18.13;49.49
74079;BME280;62437;51.544;-3.276;2022-08-25T05:44:31;101180.31;;;18.08;49.26
74079;BME280;62437;51.544;-3.276;2022-08-25T05:46:56;101180.72;;;18.26;48.92
74079;BME280;62437;51.544;-3.276;2022-08-25T05:49:22;101177.54;;;18.08;49.61
74079;BME280;62437;51.544;-3.276;2022-08-25T05:51:48;101179.75;;;18.50;49.56
74079;BME280;62437;51.544;-3.276;2022-08-25T05:54:13;101193.74;;;18.75;48.85
74079;BME280;62437;51.544;-3.276;2022-08-25T05:56:39;101193.36;;;18.33;49.12
74079;BME280;62437;51.544;-3.276;2022-08-25T05:59:05;101190.02;;;18.17;48.93
74079;BME280;62437;51.544;-3.276;2022-08-25T06:01:30;101186.83;;;18.21;49.38
74079;BME280;62437;51.544;-3.276;2022-08-25T06:03:56;101191.27;;;18.33;49.35
74079;BME280;62437;51.544;-3.276;2022-08-25T06:06:22;101198.16;;;18.31;49.25
74079;BME280;62437;51.544;-3.276;2022-08-25T06:08:47;101206.43;;;18.33;49.18
74079;BME280;62437;51.544;-3.276;2022-08-25T06:11:13;101213.98;;;18.51;48.85
74079;BME280;62437;51.544;-3.276;2022-08-25T06:13:38;101220.68;;;18.71;48.56
74079;BME280;62437;51.544;-3.276;2022-08-25T06:16:04;101222.83;;;18.87;48.13
74079;BME280;62437;51.544;-3.276;2022-08-25T06:18:29;101228.86;;;19.06;48.11
74079;BME280;62437;51.544;-3.276;2022-08-25T06:20:55;101234.83;;;19.12;48.16
74079;BME280;62437;51.544;-3.276;2022-08-25T06:23:21;101241.45;;;18.88;48.39
74079;BME280;62437;51.544;-3.276;2022-08-25T06:25:49;101251.19;;;19.05;48.11
74079;BME280;62437;51.544;-3.276;2022-08-25T06:28:12;101254.54;;;19.12;47.88
74079;BME280;62437;51.544;-3.276;2022-08-25T06:30:38;101253.86;;;19.16;47.88
74079;BME280;62437;51.544;-3.276;2022-08-25T06:33:03;101252.37;;;19.09;47.79
74079;BME280;62437;51.544;-3.276;2022-08-25T06:35:29;101257.12;;;19.24;48.06
74079;BME280;62437;51.544;-3.276;2022-08-25T06:37:55;101269.58;;;19.09;48.06
74079;BME280;62437;51.544;-3.276;2022-08-25T06:40:20;101274.89;;;18.78;48.43
74079;BME280;62437;51.544;-3.276;2022-08-25T06:42:47;101279.61;;;19.11;48.18
74079;BME280;62437;51.544;-3.276;2022-08-25T06:45:11;101282.07;;;19.19;47.81
74079;BME280;62437;51.544;-3.276;2022-08-25T06:47:37;101284.79;;;19.13;48.09
74079;BME280;62437;51.544;-3.276;2022-08-25T06:50:03;101283.00;;;19.01;48.58
74079;BME280;62437;51.544;-3.276;2022-08-25T06:52:28;101279.64;;;19.19;47.99
74079;BME280;62437;51.544;-3.276;2022-08-25T06:54:54;101275.74;;;19.12;47.71
74079;BME280;62437;51.544;-3.276;2022-08-25T06:57:20;101277.70;;;19.15;48.32
74079;BME280;62437;51.544;-3.276;2022-08-25T06:59:45;101281.56;;;19.30;47.75
74079;BME280;62437;51.544;-3.276;2022-08-25T07:02:11;101278.31;;;19.34;47.63
74079;BME280;62437;51.544;-3.276;2022-08-25T07:04:37;101272.60;;;18.97;48.13
74079;BME280;62437;51.544;-3.276;2022-08-25T07:07:02;101274.48;;;19.03;48.20
74079;BME280;62437;51.544;-3.276;2022-08-25T07:09:28;101282.73;;;19.07;50.39
74079;BME280;62437;51.544;-3.276;2022-08-25T07:11:54;101279.79;;;19.15;48.20
74079;BME280;62437;51.544;-3.276;2022-08-25T07:14:19;101280.21;;;19.00;48.34
74079;BME280;62437;51.544;-3.276;2022-08-25T07:16:45;101278.97;;;18.99;48.91
74079;BME280;62437;51.544;-3.276;2022-08-25T07:19:11;101273.89;;;19.13;48.62
74079;BME280;62437;51.544;-3.276;2022-08-25T07:21:38;101270.30;;;19.13;48.46
74079;BME280;62437;51.544;-3.276;2022-08-25T07:24:04;101270.54;;;19.25;47.80
74079;BME280;62437;51.544;-3.276;2022-08-25T07:26:30;101265.43;;;19.04;47.76
74079;BME280;62437;51.544;-3.276;2022-08-25T07:29:09;101262.07;;;19.40;47.84
74079;BME280;62437;51.544;-3.276;2022-08-25T07:31:18;101267.75;;;19.04;47.44
74079;BME280;62437;51.544;-3.276;2022-08-25T07:33:44;101272.09;;;19.52;48.06
74079;BME280;62437;51.544;-3.276;2022-08-25T07:36:10;101282.38;;;18.91;48.91
74079;BME280;62437;51.544;-3.276;2022-08-25T07:38:35;101285.25;;;19.19;48.43
74079;BME280;62437;51.544;-3.276;2022-08-25T07:41:01;101285.31;;;19.03;48.84
74079;BME280;62437;51.544;-3.276;2022-08-25T07:43:27;101270.54;;;18.91;48.79
74079;BME280;62437;51.544;-3.276;2022-08-25T07:45:52;101265.18;;;19.40;47.98
74079;BME280;62437;51.544;-3.276;2022-08-25T07:48:17;101270.83;;;19.52;48.12
74079;BME280;62437;51.544;-3.276;2022-08-25T07:50:44;101275.01;;;19.73;48.05
74079;BME280;62437;51.544;-3.276;2022-08-25T07:53:09;101265.84;;;19.78;48.16
74079;BME280;62437;51.544;-3.276;2022-08-25T07:55:49;101257.84;;;19.29;47.92
74079;BME280;62437;51.544;-3.276;2022-08-25T07:58:00;101271.17;;;19.30;48.21
74079;BME280;62437;51.544;-3.276;2022-08-25T08:00:26;101289.45;;;19.34;48.42
74079;BME280;62437;51.544;-3.276;2022-08-25T08:02:51;101291.03;;;19.31;48.02
74079;BME280;62437;51.544;-3.276;2022-08-25T08:05:17;101285.32;;;19.26;48.46
74079;BME280;62437;51.544;-3.276;2022-08-25T08:07:43;101283.03;;;19.68;48.11
74079;BME280;62437;51.544;-3.276;2022-08-25T08:10:11;101283.28;;;19.33;48.58
74079;BME280;62437;51.544;-3.276;2022-08-25T08:12:34;101286.39;;;19.40;48.49
74079;BME280;62437;51.544;-3.276;2022-08-25T08:15:07;101284.75;;;19.41;48.42
74079;BME280;62437;51.544;-3.276;2022-08-25T08:17:26;101289.27;;;19.81;48.67
74079;BME280;62437;51.544;-3.276;2022-08-25T08:19:51;101286.59;;;19.50;48.74
74079;BME280;62437;51.544;-3.276;2022-08-25T08:22:25;101279.69;;;19.42;48.99
74079;BME280;62437;51.544;-3.276;2022-08-25T08:24:43;101278.21;;;19.47;48.53
74079;BME280;62437;51.544;-3.276;2022-08-25T08:27:08;101273.35;;;19.59;48.19
74079;BME280;62437;51.544;-3.276;2022-08-25T08:29:34;101269.13;;;20.05;48.15
74079;BME280;62437;51.544;-3.276;2022-08-25T08:32:14;101264.23;;;19.75;48.92
74079;BME280;62437;51.544;-3.276;2022-08-25T08:34:24;101262.72;;;19.67;48.83
74079;BME280;62437;51.544;-3.276;2022-08-25T08:36:50;101268.44;;;19.48;49.79
74079;BME280;62437;51.544;-3.276;2022-08-25T08:39:15;101270.69;;;19.13;48.92
74079;BME280;62437;51.544;-3.276;2022-08-25T08:41:55;101275.84;;;19.24;48.66
74079;BME280;62437;51.544;-3.276;2022-08-25T08:44:12;101286.13;;;19.66;49.43
74079;BME280;62437;51.544;-3.276;2022-08-25T08:46:38;101286.35;;;19.50;49.09
74079;BME280;62437;51.544;-3.276;2022-08-25T08:49:02;101283.31;;;19.76;49.19
74079;BME280;62437;51.544;-3.276;2022-08-25T08:51:29;101276.66;;;19.34;49.05
74079;BME280;62437;51.544;-3.276;2022-08-25T08:53:55;101277.80;;;19.73;48.62
74079;BME280;62437;51.544;-3.276;2022-08-25T08:56:19;101279.45;;;19.35;48.90
74079;BME280;62437;51.544;-3.276;2022-08-25T08:58:43;101280.65;;;19.91;48.66
74079;BME280;62437;51.544;-3.276;2022-08-25T09:01:08;101286.99;;;19.56;48.54
74079;BME280;62437;51.544;-3.276;2022-08-25T09:03:35;101292.27;;;19.79;48.42
74079;BME280;62437;51.544;-3.276;2022-08-25T09:06:02;101298.26;;;19.62;48.46
74079;BME280;62437;51.544;-3.276;2022-08-25T09:08:23;101302.91;;;19.81;48.35
74079;BME280;62437;51.544;-3.276;2022-08-25T09:11:00;101303.35;;;19.86;48.40
74079;BME280;62437;51.544;-3.276;2022-08-25T09:13:20;101298.23;;;19.69;48.00
74079;BME280;62437;51.544;-3.276;2022-08-25T09:15:47;101299.03;;;19.72;47.97
74079;BME280;62437;51.544;-3.276;2022-08-25T09:18:11;101294.83;;;20.20;47.72
74079;BME280;62437;51.544;-3.276;2022-08-25T09:20:42;101294.86;;;19.94;47.97
74079;BME280;62437;51.544;-3.276;2022-08-25T09:23:02;101300.12;;;19.90;48.19
74079;BME280;62437;51.544;-3.276;2022-08-25T09:25:25;101301.87;;;19.71;47.87
74079;BME280;62437;51.544;-3.276;2022-08-25T09:27:54;101294.41;;;19.96;47.86
74079;BME280;62437;51.544;-3.276;2022-08-25T09:30:15;101291.18;;;19.84;48.13
74079;BME280;62437;51.544;-3.276;2022-08-25T09:32:42;101285.95;;;20.24;47.53
74079;BME280;62437;51.544;-3.276;2022-08-25T09:35:07;101280.46;;;20.35;47.59
74079;BME280;62437;51.544;-3.276;2022-08-25T09:37:30;101275.32;;;20.19;46.71
74079;BME280;62437;51.544;-3.276;2022-08-25T09:39:56;101273.25;;;20.29;46.55
74079;BME280;62437;51.544;-3.276;2022-08-25T09:42:22;101277.08;;;20.20;46.22
74079;BME280;62437;51.544;-3.276;2022-08-25T09:44:47;101277.34;;;20.54;46.10
74079;BME280;62437;51.544;-3.276;2022-08-25T09:47:20;101273.80;;;20.76;45.82
74079;BME280;62437;51.544;-3.276;2022-08-25T09:49:40;101275.48;;;20.47;46.64
74079;BME280;62437;51.544;-3.276;2022-08-25T09:52:24;101277.06;;;20.70;46.66
74079;BME280;62437;51.544;-3.276;2022-08-25T09:54:29;101282.97;;;20.86;46.44
74079;BME280;62437;51.544;-3.276;2022-08-25T09:56:57;101285.57;;;20.97;46.43
74079;BME280;62437;51.544;-3.276;2022-08-25T09:59:24;101279.95;;;20.94;45.29
74079;BME280;62437;51.544;-3.276;2022-08-25T10:01:47;101275.23;;;20.78;45.23
74079;BME280;62437;51.544;-3.276;2022-08-25T10:04:12;101282.04;;;20.58;45.67
74079;BME280;62437;51.544;-3.276;2022-08-25T10:06:43;101281.58;;;20.59;45.63
74079;BME280;62437;51.544;-3.276;2022-08-25T10:09:06;101275.79;;;20.56;45.94
74079;BME280;62437;51.544;-3.276;2022-08-25T10:11:33;101274.86;;;20.79;44.62
74079;BME280;62437;51.544;-3.276;2022-08-25T10:14:01;101275.63;;;21.26;44.57
74079;BME280;62437;51.544;-3.276;2022-08-25T10:16:23;101271.11;;;21.19;45.01
74079;BME280;62437;51.544;-3.276;2022-08-25T10:21:13;101272.44;;;21.05;44.46
74079;BME280;62437;51.544;-3.276;2022-08-25T10:23:40;101269.58;;;21.00;44.32
74079;BME280;62437;51.544;-3.276;2022-08-25T10:26:08;101267.48;;;21.42;44.65
74079;BME280;62437;51.544;-3.276;2022-08-25T10:28:32;101264.41;;;21.14;45.34
74079;BME280;62437;51.544;-3.276;2022-08-25T10:31:00;101262.30;;;21.50;43.37
74079;BME280;62437;51.544;-3.276;2022-08-25T10:33:26;101264.36;;;21.44;44.20
74079;BME280;62437;51.544;-3.276;2022-08-25T10:35:53;101262.37;;;21.80;44.01
74079;BME280;62437;51.544;-3.276;2022-08-25T10:38:20;101259.34;;;22.01;44.15
74079;BME280;62437;51.544;-3.276;2022-08-25T10:40:39;101258.59;;;22.23;43.02
74079;BME280;62437;51.544;-3.276;2022-08-25T10:43:04;101256.31;;;21.87;43.92
74079;BME280;62437;51.544;-3.276;2022-08-25T10:45:28;101259.39;;;22.06;43.41
74079;BME280;62437;51.544;-3.276;2022-08-25T10:48:07;101261.10;;;22.33;42.89
74079;BME280;62437;51.544;-3.276;2022-08-25T10:50:26;101256.23;;;22.67;43.68
74079;BME280;62437;51.544;-3.276;2022-08-25T10:52:56;101253.11;;;22.05;43.39
74079;BME280;62437;51.544;-3.276;2022-08-25T10:55:16;101249.85;;;22.36;43.30
74079;BME280;62437;51.544;-3.276;2022-08-25T10:57:40;101251.03;;;22.32;44.07
74079;BME280;62437;51.544;-3.276;2022-08-25T11:00:06;101244.82;;;21.98;44.54
74079;BME280;62437;51.544;-3.276;2022-08-25T11:02:40;101244.28;;;21.41;45.75
74079;BME280;62437;51.544;-3.276;2022-08-25T11:04:56;101242.18;;;22.62;44.12
74079;BME280;62437;51.544;-3.276;2022-08-25T11:07:24;101243.92;;;21.85;43.82
74079;BME280;62437;51.544;-3.276;2022-08-25T11:09:45;101244.02;;;22.34;43.68
74079;BME280;62437;51.544;-3.276;2022-08-25T11:12:11;101244.28;;;22.43;43.72
74079;BME280;62437;51.544;-3.276;2022-08-25T11:14:38;101252.03;;;22.31;43.55
74079;BME280;62437;51.544;-3.276;2022-08-25T11:17:05;101248.65;;;22.12;43.72
74079;BME280;62437;51.544;-3.276;2022-08-25T11:19:29;101242.47;;;22.50;43.45
74079;BME280;62437;51.544;-3.276;2022-08-25T11:22:09;101239.38;;;22.77;44.24
74079;BME280;62437;51.544;-3.276;2022-08-25T11:24:32;101240.79;;;23.12;42.66
74079;BME280;62437;51.544;-3.276;2022-08-25T11:26:47;101238.15;;;23.47;42.77
74079;BME280;62437;51.544;-3.276;2022-08-25T11:29:12;101237.49;;;23.20;41.29
74079;BME280;62437;51.544;-3.276;2022-08-25T11:31:38;101238.49;;;22.69;40.94
74079;BME280;62437;51.544;-3.276;2022-08-25T11:33:59;101239.31;;;22.68;41.41
74079;BME280;62437;51.544;-3.276;2022-08-25T11:36:28;101238.70;;;23.21;41.25
74079;BME280;62437;51.544;-3.276;2022-08-25T11:38:56;101235.67;;;23.11;40.33
74079;BME280;62437;51.544;-3.276;2022-08-25T11:41:24;101233.57;;;23.57;39.47
74079;BME280;62437;51.544;-3.276;2022-08-25T11:43:53;101231.28;;;23.54;40.03
74079;BME280;62437;51.544;-3.276;2022-08-25T11:46:17;101230.17;;;23.73;39.02
74079;BME280;62437;51.544;-3.276;2022-08-25T11:48:40;101235.45;;;24.02;38.92
74079;BME280;62437;51.544;-3.276;2022-08-25T11:51:01;101237.00;;;23.93;39.09
74079;BME280;62437;51.544;-3.276;2022-08-25T11:53:26;101236.54;;;23.84;39.76
74079;BME280;62437;51.544;-3.276;2022-08-25T11:55:51;101238.84;;;23.55;39.93
74079;BME280;62437;51.544;-3.276;2022-08-25T11:58:28;101238.72;;;23.83;39.65
74079;BME280;62437;51.544;-3.276;2022-08-25T12:00:42;101245.90;;;23.39;39.82
74079;BME280;62437;51.544;-3.276;2022-08-25T12:05:49;101248.80;;;23.33;39.19
74079;BME280;62437;51.544;-3.276;2022-08-25T12:08:01;101249.59;;;23.76;37.84
74079;BME280;62437;51.544;-3.276;2022-08-25T12:10:23;101252.95;;;23.31;37.43
74079;BME280;62437;51.544;-3.276;2022-08-25T12:13:04;101255.48;;;22.97;36.65
74079;BME280;62437;51.544;-3.276;2022-08-25T12:15:19;101254.63;;;23.11;38.33
74079;BME280;62437;51.544;-3.276;2022-08-25T12:17:39;101256.52;;;23.07;38.67
74079;BME280;62437;51.544;-3.276;2022-08-25T12:20:05;101257.55;;;22.97;40.23
74079;BME280;62437;51.544;-3.276;2022-08-25T12:22:43;101260.11;;;23.00;40.91
74079;BME280;62437;51.544;-3.276;2022-08-25T12:25:01;101260.39;;;22.83;40.39
74079;BME280;62437;51.544;-3.276;2022-08-25T12:27:26;101265.06;;;23.13;40.61
74079;BME280;62437;51.544;-3.276;2022-08-25T12:29:50;101264.92;;;22.98;40.83
74079;BME280;62437;51.544;-3.276;2022-08-25T12:32:22;101263.08;;;23.40;40.31
74079;BME280;62437;51.544;-3.276;2022-08-25T12:34:51;101261.86;;;23.40;40.09
74079;BME280;62437;51.544;-3.276;2022-08-25T12:37:11;101260.29;;;23.64;38.10